createdAt,value
2023-03-01T00:01:41.542Z,19.20
2023-03-01T00:04:08.522Z,18.50
2023-03-01T00:06:35.433Z,20.33
2023-03-01T00:09:02.439Z,19.88
2023-03-01T00:11:32.174Z,19.75
2023-03-01T00:14:02.382Z,19.92
2023-03-01T00:16:34.675Z,18.50
2023-03-01T00:19:01.698Z,19.23
2023-03-01T00:21:29.154Z,18.02
2023-03-01T00:23:56.617Z,19.05
2023-03-01T00:26:25.965Z,18.90
2023-03-01T00:28:53.596Z,19.50
2023-03-01T00:31:26.654Z,18.90
2023-03-01T00:33:58.282Z,21.40
2023-03-01T00:36:31.015Z,19.92
2023-03-01T00:38:58.768Z,18.42
2023-03-01T00:41:27.684Z,21.23
2023-03-01T00:43:55.841Z,21.65
2023-03-01T00:46:27.698Z,18.27
2023-03-01T00:48:55.434Z,18.45
2023-03-01T00:51:27.439Z,18.17
2023-03-01T00:53:59.579Z,18.10
2023-03-01T00:56:27.525Z,15.80
2023-03-01T00:58:54.483Z,16.45
2023-03-01T01:01:32.464Z,16.35
2023-03-01T01:04:12.760Z,16.20
2023-03-01T01:06:46.644Z,15.73
2023-03-01T01:09:18.596Z,16.83
2023-03-01T01:11:51.756Z,15.65
2023-03-01T01:14:21.070Z,16.30
2023-03-01T01:16:49.453Z,17.63
2023-03-01T01:19:17.824Z,16.52
2023-03-01T01:21:45.828Z,17.42
2023-03-01T01:24:13.148Z,16.40
2023-03-01T01:26:40.120Z,16.95
2023-03-01T01:29:07.762Z,17.08
2023-03-01T01:31:37.857Z,16.15
2023-03-01T01:34:07.494Z,16.17
2023-03-01T01:36:35.241Z,15.82
2023-03-01T01:39:02.516Z,15.70
2023-03-01T01:41:30.840Z,16.30
2023-03-01T01:44:25.739Z,16.70
2023-03-01T01:47:04.715Z,15.40
2023-03-01T01:49:39.574Z,15.10
2023-03-01T01:52:35.547Z,15.15
2023-03-01T01:55:12.491Z,16.17
2023-03-01T01:57:46.273Z,15.82
2023-03-01T02:00:20.349Z,15.15
2023-03-01T02:02:56.075Z,17.10
2023-03-01T02:05:55.281Z,16.48
2023-03-01T02:08:27.930Z,14.98
2023-03-01T02:10:57.530Z,15.90
2023-03-01T02:13:24.740Z,16.77
2023-03-01T02:15:51.833Z,15.80
2023-03-01T02:18:22.002Z,15.85
2023-03-01T02:21:28.178Z,17.02
2023-03-01T02:23:56.904Z,16.17
2023-03-01T02:26:35.933Z,17.08
2023-03-01T02:29:02.967Z,18.45
2023-03-01T02:31:45.767Z,18.85
2023-03-01T02:34:19.389Z,17.20
2023-03-01T02:36:57.159Z,18.58
2023-03-01T02:39:42.762Z,17.85
2023-03-01T02:44:42.342Z,17.55
2023-03-01T02:47:09.431Z,18.08
2023-03-01T02:49:38.095Z,17.95
2023-03-01T02:52:43.692Z,20.13
2023-03-01T02:55:18.603Z,17.98
2023-03-01T02:57:51.555Z,18.77
2023-03-01T03:00:36.688Z,19.42
2023-03-01T03:03:04.545Z,19.88
2023-03-01T03:05:33.916Z,17.52
2023-03-01T03:08:04.321Z,18.70
2023-03-01T03:10:40.539Z,18.55
2023-03-01T03:13:12.370Z,19.15
2023-03-01T03:15:41.995Z,18.00
2023-03-01T03:18:13.922Z,19.60
2023-03-01T03:20:42.766Z,18.92
2023-03-01T03:23:10.089Z,19.42
2023-03-01T03:25:38.759Z,18.48
2023-03-01T03:28:10.592Z,18.88
2023-03-01T03:30:41.749Z,20.50
2023-03-01T03:33:13.625Z,18.80
2023-03-01T03:35:51.339Z,19.63
2023-03-01T03:38:22.888Z,18.42
2023-03-01T03:41:03.980Z,19.13
2023-03-01T03:43:34.817Z,19.63
2023-03-01T03:46:06.640Z,19.63
2023-03-01T03:48:41.254Z,20.25
2023-03-01T03:51:12.519Z,18.88
2023-03-01T03:53:39.848Z,18.80
2023-03-01T03:56:07.603Z,19.33
2023-03-01T03:58:34.727Z,19.98
2023-03-01T04:01:01.861Z,20.05
2023-03-01T04:03:31.579Z,20.77
2023-03-01T04:06:00.450Z,17.33
2023-03-01T04:08:28.478Z,20.02
2023-03-01T04:11:21.800Z,19.52
2023-03-01T04:13:49.386Z,18.23
2023-03-01T04:16:17.542Z,17.08
2023-03-01T04:18:45.285Z,18.45
2023-03-01T04:21:12.808Z,20.73
2023-03-01T04:23:41.663Z,20.70
2023-03-01T04:26:09.237Z,21.65
2023-03-01T04:28:47.099Z,20.23
2023-03-01T04:31:22.076Z,20.65
2023-03-01T04:33:56.237Z,20.00
2023-03-01T04:36:29.357Z,21.77
2023-03-01T04:38:57.233Z,20.42
2023-03-01T04:41:26.455Z,20.35
2023-03-01T04:43:53.840Z,19.38
2023-03-01T04:46:22.405Z,19.75
2023-03-01T04:48:49.876Z,20.38
2023-03-01T04:51:17.576Z,20.25
2023-03-01T04:53:45.294Z,19.90
2023-03-01T04:56:14.772Z,19.45
2023-03-01T04:58:43.026Z,20.30
2023-03-01T05:01:19.863Z,19.83
2023-03-01T05:03:52.518Z,20.15
2023-03-01T05:06:21.084Z,21.13
2023-03-01T05:08:48.084Z,21.65
2023-03-01T05:11:15.165Z,19.27
2023-03-01T05:13:42.527Z,19.80
2023-03-01T05:16:13.406Z,20.08
2023-03-01T05:18:41.754Z,20.73
2023-03-01T05:21:13.467Z,20.00
2023-03-01T05:23:40.667Z,19.83
2023-03-01T05:26:25.780Z,20.23
2023-03-01T05:29:00.287Z,21.63
2023-03-01T05:31:28.092Z,20.65
2023-03-01T05:33:54.988Z,20.42
2023-03-01T05:36:21.993Z,20.90
2023-03-01T05:38:48.881Z,20.25
2023-03-01T05:41:17.925Z,18.90
2023-03-01T05:43:46.092Z,20.67
2023-03-01T05:46:14.311Z,22.15
2023-03-01T05:48:41.717Z,19.63
2023-03-01T05:51:08.944Z,21.13
2023-03-01T05:53:35.875Z,20.50
2023-03-01T05:56:05.633Z,20.40
2023-03-01T05:58:32.604Z,19.88
2023-03-01T06:00:59.554Z,19.38
2023-03-01T06:03:26.513Z,19.70
2023-03-01T06:06:07.048Z,20.52
2023-03-01T06:08:34.044Z,19.75
2023-03-01T06:11:01.017Z,20.48
2023-03-01T06:13:27.975Z,21.63
2023-03-01T06:15:55.021Z,21.45
2023-03-01T06:18:22.678Z,21.20
2023-03-01T06:20:56.792Z,21.83
2023-03-01T06:23:25.170Z,23.02
2023-03-01T06:25:52.433Z,21.65
2023-03-01T06:28:19.612Z,20.33
2023-03-01T06:30:47.110Z,21.35
2023-03-01T06:33:14.091Z,21.52
2023-03-01T06:35:40.985Z,22.27
2023-03-01T06:38:08.429Z,22.83
2023-03-01T06:40:36.285Z,21.60
2023-03-01T06:43:03.245Z,22.52
2023-03-01T06:45:30.200Z,22.90
2023-03-01T06:48:08.636Z,22.75
2023-03-01T06:50:36.955Z,22.48
2023-03-01T06:53:10.408Z,20.83
2023-03-01T07:00:23.624Z,22.92
2023-03-01T07:02:51.172Z,24.17
2023-03-01T07:05:18.940Z,22.15
2023-03-01T07:07:46.919Z,22.85
2023-03-01T07:10:19.229Z,22.63
2023-03-01T07:12:49.164Z,23.55
2023-03-01T07:15:26.624Z,23.73
2023-03-01T07:17:54.751Z,23.60
2023-03-01T07:20:26.233Z,22.98
2023-03-01T07:22:55.705Z,25.00
2023-03-01T07:25:23.284Z,24.08
2023-03-01T07:27:53.354Z,21.50
2023-03-01T07:30:22.116Z,23.50
2023-03-01T07:32:49.456Z,24.38
2023-03-01T07:35:16.575Z,23.23
2023-03-01T07:37:46.633Z,23.00
2023-03-01T07:40:14.528Z,26.02
2023-03-01T07:42:41.464Z,24.08
2023-03-01T07:45:08.811Z,26.15
2023-03-01T07:47:35.800Z,24.20
2023-03-01T07:50:06.437Z,22.92
2023-03-01T07:52:43.655Z,25.88
2023-03-01T07:55:12.187Z,25.38
2023-03-01T07:57:42.264Z,25.10
2023-03-01T08:00:15.663Z,25.67
2023-03-01T08:02:52.564Z,22.95
2023-03-01T08:05:20.374Z,23.70
2023-03-01T08:07:47.384Z,24.55
2023-03-01T08:10:14.668Z,25.40
2023-03-01T08:12:41.718Z,23.67
2023-03-01T08:15:09.617Z,23.35
2023-03-01T08:17:36.680Z,23.30
2023-03-01T08:20:07.075Z,23.10
2023-03-01T08:22:34.197Z,23.48
2023-03-01T08:25:01.122Z,23.15
2023-03-01T08:27:28.194Z,22.23
2023-03-01T08:30:04.374Z,23.92
2023-03-01T08:32:56.404Z,26.42
2023-03-01T08:35:23.747Z,25.40
2023-03-01T08:37:50.775Z,24.02
2023-03-01T08:40:17.822Z,23.98
2023-03-01T08:42:44.809Z,25.52
2023-03-01T08:45:19.155Z,23.50
2023-03-01T08:47:56.311Z,24.33
2023-03-01T08:50:26.638Z,23.70
2023-03-01T08:53:20.682Z,25.42
2023-03-01T08:55:49.907Z,26.30
2023-03-01T08:58:17.640Z,24.77
2023-03-01T09:00:44.612Z,23.77
2023-03-01T09:03:11.742Z,22.55
2023-03-01T09:05:38.960Z,23.55
2023-03-01T09:08:06.189Z,23.80
2023-03-01T09:10:42.826Z,23.48
2023-03-01T09:13:29.483Z,23.83
2023-03-01T09:16:06.799Z,25.00
2023-03-01T09:18:35.102Z,23.55
2023-03-01T09:21:11.459Z,22.45
2023-03-01T09:23:47.710Z,22.58
2023-03-01T09:26:27.548Z,22.90
2023-03-01T09:28:56.375Z,25.58
2023-03-01T09:31:25.098Z,23.90
2023-03-01T09:33:55.689Z,22.92
2023-03-01T09:36:26.554Z,22.65
2023-03-01T09:38:56.396Z,23.95
2023-03-01T09:41:55.260Z,24.15
2023-03-01T09:44:50.932Z,23.42
2023-03-01T09:47:23.694Z,23.55
2023-03-01T09:50:19.725Z,22.65
2023-03-01T09:53:04.522Z,21.58
2023-03-01T09:55:59.993Z,21.70
2023-03-01T09:59:04.237Z,21.70
2023-03-01T10:01:47.813Z,21.80
2023-03-01T10:04:46.120Z,19.95
2023-03-01T10:07:43.835Z,23.90
2023-03-01T10:10:29.756Z,21.48
2023-03-01T10:12:58.419Z,21.70
2023-03-01T10:15:48.509Z,21.27
2023-03-01T10:18:21.436Z,20.27
2023-03-01T10:20:55.153Z,20.73
2023-03-01T10:23:25.487Z,21.10
2023-03-01T10:26:08.039Z,22.25
2023-03-01T10:28:55.432Z,21.23
2023-03-01T10:31:44.056Z,19.25
2023-03-01T10:34:29.380Z,19.35
2023-03-01T10:37:19.301Z,16.20
2023-03-01T10:40:10.346Z,15.27
2023-03-01T10:42:50.309Z,16.08
2023-03-01T10:45:33.071Z,13.45
2023-03-01T10:48:20.637Z,18.05
2023-03-01T10:50:58.533Z,17.95
2023-03-01T10:53:49.478Z,16.23
2023-03-01T10:56:17.118Z,14.75
2023-03-01T10:59:02.913Z,16.13
2023-03-01T11:01:39.116Z,17.92
2023-03-01T11:04:14.676Z,15.70
2023-03-01T11:06:59.659Z,15.07
2023-03-01T11:09:28.337Z,14.75
2023-03-01T11:12:04.849Z,14.05
2023-03-01T11:14:38.709Z,13.95
2023-03-01T11:17:24.048Z,14.43
2023-03-01T11:20:38.656Z,13.70
2023-03-01T11:23:15.265Z,13.60
2023-03-01T11:25:56.479Z,13.35
2023-03-01T11:28:27.385Z,13.85
2023-03-01T11:31:10.343Z,12.40
2023-03-01T11:33:59.594Z,13.13
2023-03-01T11:36:47.590Z,13.23
2023-03-01T11:39:43.836Z,12.55
2023-03-01T11:42:25.940Z,11.77
2023-03-01T11:44:59.721Z,12.82
2023-03-01T11:47:51.216Z,12.90
2023-03-01T11:50:50.817Z,10.75
2023-03-01T11:53:59.133Z,11.07
2023-03-01T11:56:46.848Z,10.85
2023-03-01T11:59:46.666Z,10.48
2023-03-01T12:02:46.736Z,10.90
2023-03-01T12:05:48.053Z,10.13
2023-03-01T12:08:35.864Z,10.75
2023-03-01T12:11:36.386Z,10.88
2023-03-01T12:14:38.999Z,11.88
2023-03-01T12:17:18.219Z,11.00
2023-03-01T12:20:25.723Z,12.02
2023-03-01T12:23:30.369Z,13.30
2023-03-01T12:26:13.295Z,13.35
2023-03-01T12:29:10.628Z,13.15
2023-03-01T12:32:08.352Z,13.60
2023-03-01T12:34:53.238Z,14.52
2023-03-01T12:37:35.695Z,14.33
2023-03-01T12:40:49.339Z,14.18
2023-03-01T12:44:07.558Z,15.70
2023-03-01T12:46:58.616Z,14.43
2023-03-01T12:49:38.751Z,14.35
2023-03-01T12:52:37.835Z,15.18
2023-03-01T12:55:22.468Z,15.25
2023-03-01T12:58:47.365Z,14.15
2023-03-01T13:01:42.546Z,14.82
2023-03-01T13:04:50.889Z,14.90
2023-03-01T13:07:26.134Z,14.45
2023-03-01T13:10:02.467Z,14.38
2023-03-01T13:12:58.186Z,14.68
2023-03-01T13:15:25.364Z,15.10
2023-03-01T13:18:02.381Z,14.80
2023-03-01T13:20:52.633Z,13.32
2023-03-01T13:23:22.659Z,13.45
2023-03-01T13:26:18.337Z,15.23
2023-03-01T13:28:45.199Z,12.68
2023-03-01T13:31:32.206Z,13.60
2023-03-01T13:34:01.543Z,14.77
2023-03-01T13:36:28.647Z,12.95
2023-03-01T13:39:02.166Z,13.05
2023-03-01T13:41:44.125Z,12.80
2023-03-01T13:44:39.624Z,14.63
2023-03-01T13:47:06.888Z,16.02
2023-03-01T13:50:00.004Z,16.10
2023-03-01T13:52:45.111Z,15.05
2023-03-01T13:55:17.819Z,14.18
2023-03-01T13:57:54.561Z,13.32
2023-03-01T14:00:39.758Z,13.80
2023-03-01T14:03:20.877Z,14.25
2023-03-01T14:06:28.204Z,14.23
2023-03-01T14:09:26.016Z,13.88
2023-03-01T14:12:42.419Z,14.13
2023-03-01T14:15:44.513Z,12.82
2023-03-01T14:18:40.059Z,14.25
2023-03-01T14:21:10.435Z,13.88
2023-03-01T14:23:42.969Z,14.25
2023-03-01T14:26:13.220Z,15.55
2023-03-01T14:28:43.399Z,14.65
2023-03-01T14:31:52.021Z,13.65
2023-03-01T14:34:25.438Z,14.15
2023-03-01T14:36:52.723Z,15.13
2023-03-01T14:39:27.377Z,14.35
2023-03-01T14:41:54.822Z,14.43
2023-03-01T14:44:25.753Z,13.77
2023-03-01T14:46:58.223Z,13.98
2023-03-01T14:49:37.282Z,12.93
2023-03-01T14:52:31.439Z,14.20
2023-03-01T14:54:58.590Z,12.48
2023-03-01T14:57:27.734Z,12.43
2023-03-01T15:00:01.352Z,13.75
2023-03-01T15:02:31.364Z,11.40
2023-03-01T15:05:08.104Z,12.32
2023-03-01T15:07:42.141Z,12.98
2023-03-01T15:10:28.148Z,13.52
2023-03-01T15:12:55.333Z,13.10
2023-03-01T15:15:29.622Z,12.65
2023-03-01T15:18:01.176Z,13.88
2023-03-01T15:20:31.511Z,12.88
2023-03-01T15:22:58.995Z,13.02
2023-03-01T15:25:30.893Z,13.52
2023-03-01T15:28:01.268Z,11.55
2023-03-01T15:30:38.436Z,12.10
2023-03-01T15:33:34.715Z,12.80
2023-03-01T15:38:55.180Z,12.25
2023-03-01T15:41:51.152Z,12.65
2023-03-01T15:47:31.012Z,11.18
2023-03-01T15:50:00.641Z,10.63
2023-03-01T15:52:41.521Z,12.13
2023-03-01T15:55:20.122Z,13.18
2023-03-01T15:57:48.302Z,11.65
2023-03-01T16:00:18.634Z,12.55
2023-03-01T16:02:46.283Z,10.82
2023-03-01T16:05:37.537Z,11.65
2023-03-01T16:08:07.205Z,10.90
2023-03-01T16:10:35.843Z,11.80
2023-03-01T16:13:02.723Z,12.02
2023-03-01T16:15:35.193Z,11.00
2023-03-01T16:18:02.732Z,10.45
2023-03-01T16:20:33.515Z,10.32
2023-03-01T16:23:07.568Z,8.38
2023-03-01T16:25:36.429Z,8.95
2023-03-01T16:28:09.606Z,9.23
2023-03-01T16:30:40.383Z,9.27
2023-03-01T16:33:31.138Z,10.93
2023-03-01T16:35:56.548Z,10.23
2023-03-01T16:38:23.771Z,9.73
2023-03-01T16:40:52.882Z,9.02
2023-03-01T16:43:20.158Z,11.38
2023-03-01T16:45:47.452Z,12.93
2023-03-01T16:48:14.915Z,10.95
2023-03-01T16:50:42.338Z,10.52
2023-03-01T16:53:09.559Z,10.73
2023-03-01T16:55:36.786Z,9.80
2023-03-01T16:58:05.097Z,9.77
2023-03-01T17:00:32.070Z,8.90
2023-03-01T17:02:59.452Z,10.07
2023-03-01T17:05:26.916Z,10.30
2023-03-01T17:07:56.611Z,9.90
2023-03-01T17:10:24.045Z,11.25
2023-03-01T17:12:51.212Z,10.52
2023-03-01T17:15:18.675Z,10.27
2023-03-01T17:17:45.754Z,9.93
2023-03-01T17:20:13.609Z,9.25
2023-03-01T17:22:40.933Z,9.95
2023-03-01T17:25:10.580Z,9.40
2023-03-01T17:27:39.360Z,10.07
2023-03-01T17:30:09.884Z,9.02
2023-03-01T17:32:37.089Z,8.55
2023-03-01T17:35:04.726Z,9.70
2023-03-01T17:37:31.609Z,9.88
2023-03-01T17:39:58.538Z,9.30
2023-03-01T17:42:25.672Z,9.40
2023-03-01T17:44:52.581Z,9.73
2023-03-01T17:47:19.907Z,9.43
2023-03-01T17:49:46.784Z,9.40
2023-03-01T17:52:13.697Z,10.63
2023-03-01T17:54:40.588Z,9.05
2023-03-01T17:57:07.671Z,9.80
2023-03-01T17:59:37.536Z,8.80
2023-03-01T18:02:04.919Z,9.38
2023-03-01T18:04:32.669Z,9.13
2023-03-01T18:06:59.896Z,8.57
2023-03-01T18:09:30.551Z,8.95
2023-03-01T18:11:57.540Z,8.48
2023-03-01T18:14:24.907Z,9.18
2023-03-01T18:16:51.975Z,8.63
2023-03-01T18:19:18.970Z,8.70
2023-03-01T18:21:45.861Z,9.13
2023-03-01T18:24:12.832Z,9.63
2023-03-01T18:26:40.437Z,8.57
2023-03-01T18:29:08.155Z,9.18
2023-03-01T18:31:35.210Z,7.95
2023-03-01T18:34:02.690Z,7.93
2023-03-01T18:36:34.282Z,8.48
2023-03-01T18:39:06.902Z,7.93
2023-03-01T18:41:34.918Z,7.90
2023-03-01T18:44:04.849Z,8.10
2023-03-01T18:46:32.665Z,7.85
2023-03-01T18:49:00.587Z,8.32
2023-03-01T18:51:30.132Z,7.25
2023-03-01T18:53:58.771Z,7.53
2023-03-01T18:56:28.569Z,7.93
2023-03-01T18:58:56.347Z,8.18
2023-03-01T19:01:30.735Z,7.13
2023-03-01T19:03:58.567Z,8.02
2023-03-01T19:06:31.762Z,7.78
2023-03-01T19:08:59.771Z,6.93
2023-03-01T19:11:30.643Z,6.95
2023-03-01T19:13:59.726Z,6.35
2023-03-01T19:16:31.023Z,7.22
2023-03-01T19:19:01.467Z,7.28
2023-03-01T19:21:35.173Z,7.28
2023-03-01T19:24:03.310Z,7.32
2023-03-01T19:26:32.159Z,7.35
2023-03-01T19:29:00.097Z,7.15
2023-03-01T19:31:30.655Z,7.75
2023-03-01T19:34:10.546Z,6.38
2023-03-01T19:36:42.541Z,6.78
2023-03-01T19:39:13.523Z,7.15
2023-03-01T19:41:41.180Z,7.60
2023-03-01T19:44:09.011Z,6.93
2023-03-01T19:46:36.618Z,6.82
2023-03-01T19:49:04.524Z,7.70
2023-03-01T19:51:36.836Z,7.13
2023-03-01T19:54:06.193Z,7.13
2023-03-01T19:56:34.261Z,6.45
2023-03-01T19:59:04.319Z,7.15
2023-03-01T20:01:34.473Z,6.60
2023-03-01T20:04:02.902Z,6.53
2023-03-01T20:06:30.918Z,6.28
2023-03-01T20:09:00.664Z,7.07
2023-03-01T20:11:31.816Z,8.43
2023-03-01T20:13:59.865Z,7.72
2023-03-01T20:16:27.227Z,7.30
2023-03-01T20:18:54.544Z,7.72
2023-03-01T20:21:24.437Z,7.47
2023-03-01T20:23:53.265Z,8.45
2023-03-01T20:26:23.119Z,8.60
2023-03-01T20:28:53.050Z,8.05
2023-03-01T20:31:23.049Z,8.52
2023-03-01T20:33:50.026Z,8.57
2023-03-01T20:36:18.154Z,7.70
2023-03-01T20:38:45.285Z,8.90
2023-03-01T20:41:13.877Z,7.82
2023-03-01T20:43:42.460Z,7.43
2023-03-01T20:46:13.298Z,8.95
2023-03-01T20:48:44.522Z,8.35
2023-03-01T20:51:15.185Z,8.25
2023-03-01T20:53:42.268Z,8.70
2023-03-01T20:56:15.693Z,8.20
2023-03-01T20:59:04.230Z,8.60
2023-03-01T21:01:31.735Z,7.97
2023-03-01T21:03:58.769Z,7.30
2023-03-01T21:06:25.784Z,7.97
2023-03-01T21:08:54.795Z,8.30
2023-03-01T21:11:25.366Z,8.50
2023-03-01T21:13:56.282Z,8.13
2023-03-01T21:16:24.103Z,7.82
2023-03-01T21:18:51.259Z,8.77
2023-03-01T21:21:22.664Z,9.40
2023-03-01T21:23:50.413Z,8.40
2023-03-01T21:26:27.129Z,9.05
2023-03-01T21:29:01.392Z,8.88
2023-03-01T21:31:33.953Z,8.98
2023-03-01T21:34:06.469Z,8.90
2023-03-01T21:36:35.237Z,10.13
2023-03-01T21:39:05.269Z,8.48
2023-03-01T21:41:37.189Z,8.80
2023-03-01T21:44:07.232Z,8.98
2023-03-01T21:46:37.993Z,10.13
2023-03-01T21:49:05.875Z,9.68
2023-03-01T21:51:33.848Z,10.32
2023-03-01T21:54:03.780Z,9.55
2023-03-01T21:56:35.016Z,9.48
2023-03-01T21:59:02.108Z,7.95
2023-03-01T22:01:29.222Z,9.75
2023-03-01T22:03:58.718Z,9.55
2023-03-01T22:06:40.357Z,10.00
2023-03-01T22:09:15.843Z,9.70
2023-03-01T22:14:18.431Z,10.43
2023-03-01T22:16:47.685Z,10.48
2023-03-01T22:19:16.878Z,11.88
2023-03-01T22:21:49.152Z,13.00
2023-03-01T22:24:22.345Z,12.55
2023-03-01T22:26:51.648Z,10.82
2023-03-01T22:29:27.432Z,10.85
2023-03-01T22:31:56.825Z,11.48
2023-03-01T22:34:24.353Z,11.15
2023-03-01T22:36:51.507Z,11.85
2023-03-01T22:39:20.802Z,13.27
2023-03-01T22:41:49.815Z,13.05
2023-03-01T22:44:21.612Z,12.57
2023-03-01T22:46:49.924Z,11.68
2023-03-01T22:49:18.036Z,13.90
2023-03-01T22:51:47.441Z,12.90
2023-03-01T22:54:15.331Z,12.40
2023-03-01T22:56:44.916Z,12.60
2023-03-01T22:59:16.252Z,12.27
2023-03-01T23:01:46.491Z,13.23
2023-03-01T23:04:15.641Z,12.25
2023-03-01T23:06:55.611Z,11.57
2023-03-01T23:09:33.844Z,12.00
2023-03-01T23:12:06.757Z,12.80
2023-03-01T23:14:34.885Z,12.55
2023-03-01T23:17:03.105Z,12.13
2023-03-01T23:19:31.974Z,13.25
2023-03-01T23:21:59.017Z,13.35
2023-03-01T23:24:31.134Z,12.82
2023-03-01T23:27:01.338Z,12.63
2023-03-01T23:29:28.276Z,11.50
2023-03-01T23:31:59.074Z,12.50
2023-03-01T23:34:27.116Z,10.95
2023-03-01T23:36:55.427Z,11.00
2023-03-01T23:39:22.913Z,12.45
2023-03-01T23:41:50.550Z,13.25
2023-03-01T23:44:20.827Z,13.68
2023-03-01T23:46:49.422Z,13.13
2023-03-01T23:49:22.998Z,13.02
2023-03-01T23:51:49.931Z,13.52
2023-03-01T23:54:21.437Z,13.73
2023-03-01T23:56:48.476Z,12.50
2023-03-01T23:59:22.403Z,12.43
